Details for AirAsia Indonesia at WADD




Go Back


Latest METAR
Local Time

WADD 232330Z 33003KT 290V020 9999 FEW016TCU FEW016 28/25 Q1010 NOSIG RMK TCU IN CLIMB OUT

24/02/2018, 08:03:40

Description
Results
AirAsia Indonesia Logo
Number of Pilots based at WADD
0 Pilots Based here
Number of AirAsia Indonesia Flights Departed from WADD
0 Flights Departed
Number of AirAsia Indonesia Flights Arrived at WADD
0 Flights Arrived
Number of AirAsia Indonesia Schedules Departing from WADD
19 Schedules
Number of AirAsia Indonesia Schedules Arriving at WADD
17 Schedules
Number of AirAsia Indonesia Schedules Departing from WADD availible today
14 Schedules Today
Number of AirAsia Indonesia Schedules Arriving at WADD availible today
15 Schedules Today
Average Landing Rate at WADD
0 fpm
AirAsia Indonesia Average Landing Rate at WADD
0 fpm
Total Fuel Purchased at WADD by AirAsia Indonesia
0.00 kgs / 0.00 lbs

Pilots Based at WADD


Pilot ID
Pilot Name
Pilot Rank
No. of Flights
No. of Flying Hours
There are no pilots assigned to this hub!   Will you be the first?
Content